Time;durP1;ratioP1;P1;durP2;ratioP2;P2;SDS_P1;SDS_P2;PMS_P1;PMS_P2;Temp;Humidity;BMP_temperature;BMP_pressure;BME280_temperature;BME280_humidity;BME280_pressure;Samples;Min_cycle;Max_cycle;Signal;HPM_P1;HPM_P2
2022/03/22 00:01:25;;;;;;;0.40;0.40;;;5.50;71.50;;;;;;5035506;28;20026;-71
2022/03/22 00:03:52;;;;;;;4.10;2.38;;;5.50;71.70;;;;;;5035521;28;20044;-71
2022/03/22 00:06:18;;;;;;;0.50;0.50;;;5.60;71.30;;;;;;5035192;28;20021;-71
2022/03/22 00:08:44;;;;;;;5.28;4.68;;;5.70;71.50;;;;;;5035369;28;20026;-71
2022/03/22 00:11:11;;;;;;;0.30;0.30;;;5.60;71.40;;;;;;5051269;28;20029;-71
2022/03/22 00:13:37;;;;;;;0.85;0.85;;;5.60;71.20;;;;;;5035592;28;20532;-71
2022/03/22 00:16:04;;;;;;;0.20;0.20;;;5.60;70.80;;;;;;5035210;28;20411;-71
2022/03/22 00:18:30;;;;;;;0.30;0.30;;;5.50;71.30;;;;;;5035263;28;20025;-71
2022/03/22 00:20:56;;;;;;;0.32;0.32;;;5.40;71.30;;;;;;5035133;28;20029;-71
2022/03/22 00:23:24;;;;;;;0.45;0.45;;;5.20;71.50;;;;;;5035105;28;20029;-71
2022/03/22 00:25:50;;;;;;;0.70;0.70;;;5.20;72.30;;;;;;5034930;28;20396;-71
2022/03/22 00:28:15;;;;;;;1.30;1.20;;;5.10;72.80;;;;;;5034944;28;20117;-71
2022/03/22 00:30:42;;;;;;;7.22;3.92;;;5.00;72.10;;;;;;5035064;28;20449;-71
2022/03/22 00:33:09;;;;;;;1.50;1.20;;;5.00;71.80;;;;;;5050248;28;20029;-71
2022/03/22 00:35:37;;;;;;;2.45;0.70;;;4.60;71.40;;;;;;5033318;28;20022;-71
2022/03/22 00:38:16;;;;;;;1.23;0.85;;;4.20;73.10;;;;;;5050153;28;20033;-71
2022/03/22 00:40:43;;;;;;;0.40;0.40;;;3.80;72.90;;;;;;5034969;28;20080;-71
2022/03/22 00:43:10;;;;;;;0.93;0.88;;;3.90;73.80;;;;;;5034800;28;20436;-71
2022/03/22 00:45:39;;;;;;;2.80;1.05;;;4.10;74.10;;;;;;5034596;28;20025;-71
2022/03/22 00:48:26;;;;;;;0.65;0.65;;;3.90;74.90;;;;;;5034628;28;20036;-71
2022/03/22 00:50:52;;;;;;;7.38;6.72;;;3.90;76.70;;;;;;5034646;28;20044;-71
2022/03/22 00:53:18;;;;;;;0.40;0.40;;;4.10;76.30;;;;;;5034679;28;20065;-71
2022/03/22 00:55:46;;;;;;;0.82;0.82;;;4.30;75.90;;;;;;5032349;28;20018;-71
2022/03/22 00:58:12;;;;;;;0.40;0.40;;;4.40;73.50;;;;;;5034160;28;20040;-71
2022/03/22 01:00:38;;;;;;;3.03;1.27;;;3.90;74.60;;;;;;5034463;28;20029;-71
2022/03/22 01:03:05;;;;;;;1.40;1.40;;;3.70;75.40;;;;;;5049711;28;20504;-71
2022/03/22 01:05:32;;;;;;;0.30;0.30;;;3.30;76.00;;;;;;5032988;28;20069;-71
2022/03/22 01:08:07;;;;;;;0.47;0.47;;;3.30;75.50;;;;;;5033029;28;20029;-71
2022/03/22 01:10:35;;;;;;;1.52;0.85;;;3.30;75.40;;;;;;5034335;28;20132;-71
2022/03/22 01:13:02;;;;;;;0.65;0.65;;;3.20;75.80;;;;;;5049600;28;20503;-71
2022/03/22 01:15:34;;;;;;;1.38;1.38;;;3.20;75.00;;;;;;5034007;28;20030;-70
2022/03/22 01:18:05;;;;;;;1.08;1.08;;;3.10;75.90;;;;;;5034239;28;20445;-71
2022/03/22 01:20:37;;;;;;;0.70;0.70;;;3.00;75.50;;;;;;5034152;28;20116;-71
2022/03/22 01:23:04;;;;;;;0.70;0.68;;;3.10;75.40;;;;;;5034104;28;20485;-71
2022/03/22 01:25:32;;;;;;;1.65;1.02;;;3.30;75.80;;;;;;5033745;28;20022;-71
2022/03/22 01:27:58;;;;;;;0.70;0.70;;;3.40;75.80;;;;;;5033715;28;20036;-71
2022/03/22 01:30:25;;;;;;;0.57;0.57;;;3.60;75.60;;;;;;5034021;28;20033;-71
2022/03/22 01:32:53;;;;;;;0.55;0.55;;;3.70;74.60;;;;;;5032696;28;20018;-71
2022/03/22 01:35:20;;;;;;;2.00;1.30;;;3.80;75.10;;;;;;5033668;28;20075;-71
2022/03/22 01:37:47;;;;;;;2.60;1.65;;;3.90;74.80;;;;;;5033679;28;20021;-71
2022/03/22 01:40:14;;;;;;;1.08;1.08;;;4.10;74.40;;;;;;5032445;28;20029;-71
2022/03/22 01:42:40;;;;;;;0.30;0.30;;;4.20;73.70;;;;;;5033605;28;20377;-71
2022/03/22 01:45:09;;;;;;;0.40;0.40;;;4.10;73.50;;;;;;5033592;28;20485;-71
2022/03/22 01:47:37;;;;;;;0.50;0.50;;;4.10;74.40;;;;;;5032267;28;20030;-71
2022/03/22 01:50:04;;;;;;;0.47;0.47;;;4.10;75.50;;;;;;5033553;28;20030;-71
2022/03/22 01:52:34;;;;;;;0.40;0.40;;;4.40;74.90;;;;;;5033510;28;20032;-71
2022/03/22 01:55:01;;;;;;;4.30;1.95;;;4.50;74.10;;;;;;5033346;28;20604;-71
2022/03/22 01:57:30;;;;;;;0.52;0.52;;;4.30;73.10;;;;;;5033336;28;20022;-71
2022/03/22 01:59:56;;;;;;;0.30;0.30;;;4.00;74.30;;;;;;5032388;28;20104;-71
2022/03/22 02:07:57;;;;;;;2.75;2.55;;;4.30;74.80;;;;;;5048149;28;20033;-72
2022/03/22 02:10:23;;;;;;;11.32;3.60;;;4.20;74.60;;;;;;5033212;28;20029;-71
2022/03/22 02:12:48;;;;;;;2.10;1.20;;;4.20;74.60;;;;;;5048425;28;20032;-71
2022/03/22 02:15:14;;;;;;;1.05;1.05;;;4.00;74.90;;;;;;5033021;28;20044;-71
2022/03/22 02:17:44;;;;;;;0.85;0.82;;;3.90;75.70;;;;;;5048153;28;20116;-71
2022/03/22 02:20:10;;;;;;;1.23;1.17;;;4.00;75.90;;;;;;5032938;28;20049;-71
2022/03/22 02:23:16;;;;;;;0.30;0.30;;;3.90;75.60;;;;;;5031704;28;20511;-71
2022/03/22 02:25:42;;;;;;;0.30;0.30;;;3.80;76.00;;;;;;4983708;28;20037;-71
2022/03/22 02:28:10;;;;;;;0.32;0.32;;;3.80;76.20;;;;;;5031369;28;20496;-71
2022/03/22 02:30:35;;;;;;;0.30;0.30;;;3.90;76.60;;;;;;5032706;28;20057;-71
2022/03/22 02:33:02;;;;;;;0.73;0.73;;;4.10;76.50;;;;;;5032744;28;20060;-71
2022/03/22 02:35:29;;;;;;;0.57;0.57;;;4.20;74.90;;;;;;5032765;28;20096;-71
2022/03/22 02:37:55;;;;;;;0.70;0.63;;;4.20;74.00;;;;;;5032657;28;20053;-71
2022/03/22 02:40:21;;;;;;;0.45;0.45;;;4.10;73.10;;;;;;5032667;28;20029;-71
2022/03/22 02:42:50;;;;;;;1.10;1.02;;;3.90;74.00;;;;;;5032549;28;20053;-71
2022/03/22 02:45:18;;;;;;;1.05;1.02;;;3.80;74.90;;;;;;5047690;28;20413;-71
2022/03/22 02:47:44;;;;;;;0.70;0.70;;;3.90;75.40;;;;;;5032241;28;20430;-71
2022/03/22 02:50:11;;;;;;;0.55;0.55;;;4.00;73.30;;;;;;5032688;28;20477;-71
2022/03/22 02:52:38;;;;;;;0.40;0.40;;;4.00;73.70;;;;;;5032432;28;20018;-71
2022/03/22 02:55:06;;;;;;;1.85;1.02;;;4.00;73.30;;;;;;5032306;28;20104;-71
2022/03/22 02:57:35;;;;;;;0.35;0.35;;;4.00;73.60;;;;;;5030922;28;20104;-71
2022/03/22 03:00:06;;;;;;;0.30;0.30;;;4.10;73.40;;;;;;5032403;28;20050;-71
2022/03/22 03:02:32;;;;;;;1.55;1.10;;;4.20;73.10;;;;;;5032295;28;20065;-71
2022/03/22 03:04:57;;;;;;;0.60;0.60;;;4.10;71.50;;;;;;5032275;28;20060;-71
2022/03/22 03:07:24;;;;;;;2.33;0.93;;;3.90;71.60;;;;;;5032139;28;20074;-71
2022/03/22 03:09:49;;;;;;;3.42;3.15;;;3.50;72.10;;;;;;5032131;28;20053;-71
2022/03/22 03:12:15;;;;;;;0.40;0.40;;;3.00;73.30;;;;;;5032103;28;20535;-71
2022/03/22 03:14:43;;;;;;;0.65;0.65;;;2.90;74.90;;;;;;5032061;28;20041;-71
2022/03/22 03:17:11;;;;;;;0.43;0.43;;;3.00;76.30;;;;;;5031903;28;20024;-71
2022/03/22 03:19:37;;;;;;;3.28;1.90;;;3.40;76.00;;;;;;5031353;28;20033;-71
2022/03/22 03:22:04;;;;;;;0.70;0.70;;;3.30;74.20;;;;;;5032099;28;20025;-71
2022/03/22 03:24:31;;;;;;;3.58;2.50;;;3.20;74.80;;;;;;5030682;28;20104;-71
2022/03/22 03:26:57;;;;;;;3.45;1.90;;;3.00;73.80;;;;;;5047051;28;20029;-71
2022/03/22 03:29:23;;;;;;;0.52;0.52;;;2.70;74.50;;;;;;5031924;28;20125;-71
2022/03/22 03:31:48;;;;;;;0.82;0.82;;;2.40;75.50;;;;;;5032093;28;20418;-71
2022/03/22 03:34:18;;;;;;;0.40;0.40;;;2.50;75.90;;;;;;5030669;28;20022;-71
2022/03/22 03:36:44;;;;;;;0.77;0.77;;;2.60;75.70;;;;;;5047144;28;20366;-71
2022/03/22 03:39:10;;;;;;;0.38;0.38;;;2.70;75.80;;;;;;5031838;28;20033;-71
2022/03/22 03:47:09;;;;;;;2.20;0.90;;;3.10;75.30;;;;;;5031566;28;20100;-71
2022/03/22 03:49:36;;;;;;;0.30;0.30;;;3.20;74.20;;;;;;5031602;28;20072;-71
2022/03/22 03:52:03;;;;;;;0.80;0.80;;;3.10;73.80;;;;;;5031761;28;20374;-71
2022/03/22 03:54:28;;;;;;;3.40;2.50;;;3.20;73.80;;;;;;5030513;28;20413;-71
2022/03/22 03:56:54;;;;;;;0.40;0.40;;;3.10;73.80;;;;;;5031579;28;20056;-71
2022/03/22 03:59:20;;;;;;;0.88;0.77;;;3.10;74.30;;;;;;5031776;28;20420;-71
2022/03/22 04:01:47;;;;;;;0.50;0.50;;;3.00;74.30;;;;;;5031672;28;20041;-71
2022/03/22 04:04:13;;;;;;;0.50;0.50;;;3.10;74.30;;;;;;5046839;28;20116;-71
2022/03/22 04:06:39;;;;;;;1.50;1.45;;;3.20;74.30;;;;;;5031431;28;20115;-71
2022/03/22 04:09:04;;;;;;;0.40;0.40;;;3.20;74.00;;;;;;5031733;28;20584;-71
2022/03/22 04:11:30;;;;;;;0.35;0.35;;;3.10;73.20;;;;;;5031618;28;20056;-71
2022/03/22 04:13:56;;;;;;;0.85;0.85;;;3.00;73.10;;;;;;5031525;28;20053;-71
2022/03/22 04:16:21;;;;;;;0.30;0.30;;;2.80;73.50;;;;;;5031371;28;20075;-71
2022/03/22 04:18:48;;;;;;;0.30;0.30;;;2.70;74.80;;;;;;5031496;28;20029;-71
2022/03/22 04:21:14;;;;;;;0.32;0.32;;;2.80;75.80;;;;;;5031530;28;20152;-71
2022/03/22 04:23:40;;;;;;;2.42;1.83;;;2.80;75.50;;;;;;5030320;28;20029;-71
2022/03/22 04:26:05;;;;;;;0.30;0.30;;;2.60;75.90;;;;;;5031322;28;20095;-71
2022/03/22 04:34:01;;;;;;;1.75;1.25;;;2.60;76.70;;;;;;5050394;28;20428;-71
2022/03/22 04:36:28;;;;;;;1.05;0.93;;;2.70;76.20;;;;;;5033779;28;20075;-71
2022/03/22 04:38:55;;;;;;;0.57;0.57;;;2.70;76.60;;;;;;5034898;28;20021;-71
2022/03/22 04:41:21;;;;;;;1.33;1.27;;;2.60;77.10;;;;;;5034876;28;20029;-71
2022/03/22 04:43:47;;;;;;;0.40;0.40;;;2.60;76.80;;;;;;5033483;28;20477;-71
2022/03/22 04:46:18;;;;;;;0.30;0.30;;;2.60;77.00;;;;;;5034478;28;20029;-71
2022/03/22 04:48:47;;;;;;;0.63;0.60;;;2.80;76.80;;;;;;5034829;28;20457;-71
2022/03/22 04:56:46;;;;;;;0.40;0.40;;;2.90;76.10;;;;;;5034417;28;20025;-71
2022/03/22 04:59:19;;;;;;;0.30;0.30;;;3.00;76.10;;;;;;5034673;28;20412;-71
2022/03/22 05:01:45;;;;;;;0.30;0.30;;;3.20;75.70;;;;;;5034485;28;20056;-71
2022/03/22 05:04:11;;;;;;;0.40;0.40;;;3.40;74.40;;;;;;5049722;28;20033;-71
2022/03/22 05:06:40;;;;;;;0.50;0.50;;;3.50;74.40;;;;;;5034189;28;20116;-71
2022/03/22 05:09:07;;;;;;;0.75;0.75;;;3.50;74.70;;;;;;5034336;28;20057;-71
2022/03/22 05:11:33;;;;;;;7.53;0.93;;;3.50;74.10;;;;;;5034357;28;20049;-70
2022/03/22 05:14:00;;;;;;;1.05;1.05;;;3.00;72.10;;;;;;5032983;28;20083;-71
2022/03/22 05:16:26;;;;;;;3.20;0.73;;;2.70;73.80;;;;;;5034112;28;20108;-71
2022/03/22 05:18:52;;;;;;;1.15;0.60;;;2.60;73.50;;;;;;5034153;28;20488;-71
2022/03/22 05:21:19;;;;;;;0.40;0.40;;;2.50;73.90;;;;;;5034120;28;20389;-71
2022/03/22 05:23:45;;;;;;;1.75;1.65;;;2.70;74.60;;;;;;5034140;28;20151;-71
2022/03/22 05:26:12;;;;;;;3.80;1.88;;;2.60;71.70;;;;;;5033947;28;20034;-71
2022/03/22 05:28:38;;;;;;;0.40;0.40;;;2.40;72.20;;;;;;5033910;28;20032;-71
2022/03/22 05:31:05;;;;;;;0.60;0.60;;;2.50;73.50;;;;;;5033956;28;20032;-71
2022/03/22 05:33:31;;;;;;;4.00;2.47;;;2.30;73.40;;;;;;5033913;28;20114;-70
2022/03/22 05:35:58;;;;;;;0.40;0.40;;;2.10;73.50;;;;;;5033491;28;20026;-71
2022/03/22 05:38:27;;;;;;;2.55;1.70;;;1.70;74.50;;;;;;5033768;28;20036;-71
2022/03/22 05:40:54;;;;;;;1.23;0.70;;;1.90;75.90;;;;;;5033603;28;20033;-71
2022/03/22 05:43:20;;;;;;;0.40;0.40;;;2.10;75.50;;;;;;5048191;28;20034;-71
2022/03/22 05:45:49;;;;;;;0.40;0.40;;;2.30;75.20;;;;;;5033464;28;20033;-71
2022/03/22 05:48:18;;;;;;;0.68;0.68;;;2.60;75.30;;;;;;5033585;28;20469;-71
2022/03/22 05:50:45;;;;;;;0.73;0.73;;;2.70;75.30;;;;;;5033569;28;20048;-71
2022/03/22 05:53:12;;;;;;;0.90;0.90;;;2.80;75.90;;;;;;5033544;28;20017;-71
2022/03/22 05:55:38;;;;;;;0.47;0.47;;;2.90;75.90;;;;;;5033173;28;20473;-71
2022/03/22 05:58:06;;;;;;;0.88;0.88;;;2.90;75.90;;;;;;5033310;28;20079;-71
2022/03/22 06:00:32;;;;;;;1.05;1.05;;;3.00;76.70;;;;;;5033429;28;20096;-71
2022/03/22 06:02:58;;;;;;;2.70;2.58;;;3.20;75.80;;;;;;5033066;28;20101;-70
2022/03/22 06:05:24;;;;;;;1.92;0.88;;;3.10;76.10;;;;;;5033103;28;20022;-70
2022/03/22 06:07:50;;;;;;;0.30;0.30;;;3.00;76.70;;;;;;5032879;28;20024;-70
2022/03/22 06:10:17;;;;;;;1.10;1.02;;;2.80;77.10;;;;;;5015352;28;20021;-70
2022/03/22 06:12:48;;;;;;;0.50;0.50;;;3.00;78.20;;;;;;5033021;28;20034;-70
2022/03/22 06:15:19;;;;;;;2.15;2.05;;;2.90;77.90;;;;;;5032908;28;20022;-70
2022/03/22 06:17:52;;;;;;;0.40;0.40;;;3.10;78.40;;;;;;5031807;28;20032;-70
2022/03/22 06:20:23;;;;;;;0.30;0.30;;;3.40;77.40;;;;;;5032966;28;20021;-70
2022/03/22 06:22:50;;;;;;;0.40;0.40;;;3.70;76.80;;;;;;5033007;28;20071;-70
2022/03/22 06:25:17;;;;;;;1.05;1.05;;;3.70;76.10;;;;;;5032763;28;20104;-70
2022/03/22 06:27:45;;;;;;;0.50;0.50;;;3.90;76.00;;;;;;5032423;28;20555;-70
2022/03/22 06:30:13;;;;;;;2.38;2.17;;;3.90;76.10;;;;;;5032651;28;20444;-70
2022/03/22 06:32:45;;;;;;;0.65;0.65;;;4.10;76.30;;;;;;5048385;28;20025;-72
2022/03/22 06:35:12;;;;;;;0.40;0.40;;;4.30;75.70;;;;;;5032519;28;20026;-72
2022/03/22 06:37:39;;;;;;;1.25;1.25;;;4.50;75.10;;;;;;5032547;28;20052;-72
2022/03/22 06:40:06;;;;;;;2.58;1.60;;;4.70;74.50;;;;;;5048145;28;20124;-72
2022/03/22 06:42:32;;;;;;;0.30;0.30;;;4.60;74.40;;;;;;5031302;28;20436;-72
2022/03/22 06:44:58;;;;;;;2.75;1.88;;;4.70;74.90;;;;;;5029455;28;20029;-72
2022/03/22 06:47:24;;;;;;;0.35;0.35;;;4.70;75.10;;;;;;5032096;28;20026;-72
2022/03/22 06:49:50;;;;;;;0.63;0.63;;;4.80;74.50;;;;;;5029829;28;20029;-72
2022/03/22 06:52:15;;;;;;;3.90;1.80;;;4.90;74.90;;;;;;5014333;28;20067;-72
2022/03/22 06:54:41;;;;;;;0.82;0.82;;;4.90;75.50;;;;;;5029516;28;20032;-72
2022/03/22 06:57:07;;;;;;;0.30;0.30;;;5.00;75.80;;;;;;5031976;28;20327;-72
2022/03/22 06:59:34;;;;;;;0.30;0.30;;;5.20;74.80;;;;;;5031485;28;20119;-72
2022/03/22 07:02:01;;;;;;;0.68;0.68;;;5.50;74.20;;;;;;5031826;28;20029;-72
2022/03/22 07:04:27;;;;;;;0.30;0.30;;;5.80;73.00;;;;;;5031436;28;20108;-72
2022/03/22 07:06:53;;;;;;;0.45;0.45;;;5.80;76.60;;;;;;5031919;28;20017;-72
2022/03/22 07:09:19;;;;;;;0.60;0.60;;;6.00;76.30;;;;;;5030396;28;20096;-72
2022/03/22 07:11:51;;;;;;;0.30;0.30;;;6.20;74.90;;;;;;5031831;28;20113;-72
2022/03/22 07:14:17;;;;;;;;;;;6.20;74.60;;;;;;5031861;28;20025;-72
2022/03/22 07:16:44;;;;;;;0.30;0.30;;;6.20;74.70;;;;;;5031766;28;19952;-72
2022/03/22 07:19:10;;;;;;;4.85;1.60;;;6.20;74.00;;;;;;5031395;28;20033;-72
2022/03/22 07:21:36;;;;;;;0.40;0.40;;;6.40;73.20;;;;;;5030772;28;20481;-72
2022/03/22 07:24:02;;;;;;;0.32;0.32;;;6.60;71.20;;;;;;5028548;28;20036;-73
2022/03/22 07:26:28;;;;;;;0.20;0.20;;;6.70;70.60;;;;;;5028640;28;20037;-72
2022/03/22 07:28:54;;;;;;;0.30;0.30;;;6.90;69.90;;;;;;5029362;28;20056;-72
2022/03/22 07:31:20;;;;;;;0.30;0.30;;;7.10;70.10;;;;;;5031135;28;20028;-72
2022/03/22 07:33:45;;;;;;;0.30;0.30;;;7.10;71.10;;;;;;5030077;28;20022;-72
2022/03/22 07:36:11;;;;;;;0.30;0.30;;;7.20;69.80;;;;;;5030906;28;20401;-72
2022/03/22 07:38:38;;;;;;;0.30;0.30;;;7.30;70.10;;;;;;5029546;28;20025;-72
2022/03/22 07:41:04;;;;;;;0.20;0.20;;;7.30;68.50;;;;;;5030980;28;20033;-72
2022/03/22 07:43:30;;;;;;;0.40;0.40;;;7.40;66.40;;;;;;5031323;28;20029;-72
2022/03/22 07:45:56;;;;;;;0.30;0.30;;;7.50;66.10;;;;;;5029224;28;20112;-72
2022/03/22 07:48:21;;;;;;;0.28;0.28;;;7.50;65.30;;;;;;5031361;28;20700;-72
2022/03/22 07:53:31;;;;;;;0.20;0.20;;;7.80;64.50;;;;;;5031524;28;20416;-74
2022/03/22 07:55:57;;;;;;;0.30;0.30;;;7.80;64.10;;;;;;5030852;28;20017;-72
2022/03/22 07:58:23;;;;;;;0.20;0.20;;;7.90;62.30;;;;;;5031490;28;20033;-72
2022/03/22 08:00:49;;;;;;;0.20;0.20;;;8.00;59.60;;;;;;5030873;28;20030;-72
2022/03/22 08:03:17;;;;;;;14.52;2.35;;;8.10;59.50;;;;;;5031660;28;20029;-72
2022/03/22 08:05:47;;;;;;;0.20;0.20;;;8.10;59.90;;;;;;5031592;28;20460;-72
2022/03/22 08:08:14;;;;;;;0.20;0.20;;;8.10;60.00;;;;;;5050203;28;20033;-72
2022/03/22 08:10:43;;;;;;;0.25;0.25;;;8.30;60.50;;;;;;5034624;28;20026;-72
2022/03/22 08:13:08;;;;;;;0.20;0.20;;;8.40;60.30;;;;;;5035130;28;20100;-72
2022/03/22 08:15:35;;;;;;;0.30;0.30;;;8.50;59.40;;;;;;5034177;28;20105;-72
2022/03/22 08:18:01;;;;;;;0.43;0.43;;;8.60;58.60;;;;;;5034995;28;20057;-72
2022/03/22 08:20:30;;;;;;;0.28;0.28;;;8.70;59.00;;;;;;5034617;28;20068;-72
2022/03/22 08:23:03;;;;;;;0.30;0.30;;;8.70;58.50;;;;;;5034946;28;20061;-72
2022/03/22 08:25:40;;;;;;;3.13;2.92;;;8.80;57.50;;;;;;5027434;28;20026;-72
2022/03/22 08:28:07;;;;;;;1.20;1.10;;;8.90;56.20;;;;;;5021415;28;20037;-71
2022/03/22 08:30:34;;;;;;;0.20;0.20;;;9.00;56.00;;;;;;5021760;28;20033;-72
2022/03/22 08:33:09;;;;;;;0.20;0.20;;;8.90;55.70;;;;;;5022962;28;20060;-72
2022/03/22 08:35:46;;;;;;;1.33;1.25;;;8.90;55.30;;;;;;5022539;28;20025;-72
2022/03/22 08:38:19;;;;;;;0.40;0.40;;;9.00;56.10;;;;;;5023400;28;20033;-72
2022/03/22 08:40:45;;;;;;;0.20;0.20;;;9.20;56.90;;;;;;5023027;28;20504;-72
2022/03/22 08:43:11;;;;;;;0.20;0.20;;;9.30;55.30;;;;;;5023437;28;20487;-72
2022/03/22 08:45:37;;;;;;;0.20;0.20;;;9.30;55.10;;;;;;5022225;28;20520;-72
2022/03/22 08:48:09;;;;;;;0.10;0.10;;;9.50;54.60;;;;;;5023331;28;20048;-71
2022/03/22 08:50:37;;;;;;;0.93;0.88;;;9.60;54.30;;;;;;5022858;28;20033;-72
2022/03/22 08:53:03;;;;;;;0.93;0.93;;;9.70;53.50;;;;;;5023088;28;20236;-72
2022/03/22 08:55:29;;;;;;;1.15;1.10;;;9.90;53.50;;;;;;5022570;28;20033;-72
2022/03/22 08:57:55;;;;;;;0.20;0.20;;;10.00;51.30;;;;;;5022434;28;20044;-72
2022/03/22 09:00:22;;;;;;;0.13;0.13;;;10.20;51.90;;;;;;5023070;28;20039;-72
2022/03/22 09:02:50;;;;;;;2.88;2.63;;;10.60;51.90;;;;;;5022599;28;20017;-72
2022/03/22 09:08:05;;;;;;;0.20;0.20;;;11.40;49.30;;;;;;5021175;28;20121;-72
2022/03/22 09:10:32;;;;;;;0.20;0.20;;;11.50;49.90;;;;;;5022522;28;20128;-72
2022/03/22 09:12:58;;;;;;;0.40;0.40;;;11.90;50.30;;;;;;5022839;28;20029;-72
2022/03/22 09:15:26;;;;;;;0.20;0.20;;;12.20;48.70;;;;;;5022604;28;20026;-72
2022/03/22 09:17:56;;;;;;;0.40;0.40;;;12.70;49.30;;;;;;5020738;28;20029;-72
2022/03/22 09:20:31;;;;;;;0.38;0.38;;;12.90;48.20;;;;;;5037858;28;20041;-72
2022/03/22 09:22:57;;;;;;;0.20;0.20;;;13.30;46.90;;;;;;5022574;28;20033;-72
2022/03/22 09:25:22;;;;;;;0.73;0.73;;;13.50;46.40;;;;;;5036790;28;20037;-72
2022/03/22 09:27:48;;;;;;;0.20;0.20;;;13.90;45.80;;;;;;5021789;28;20705;-72
2022/03/22 09:30:14;;;;;;;0.20;0.20;;;14.10;45.10;;;;;;5021876;28;20029;-72
2022/03/22 09:32:42;;;;;;;0.65;0.65;;;14.60;43.90;;;;;;5021052;28;20026;-72
2022/03/22 09:35:10;;;;;;;1.45;1.30;;;14.60;43.40;;;;;;5021527;28;20028;-72
2022/03/22 09:37:42;;;;;;;0.20;0.20;;;14.90;43.50;;;;;;5019939;28;20034;-72
2022/03/22 09:40:09;;;;;;;0.80;0.80;;;15.20;43.50;;;;;;5022374;28;20524;-72
2022/03/22 09:42:37;;;;;;;0.25;0.25;;;15.40;42.60;;;;;;5022752;28;20163;-72
2022/03/22 09:45:04;;;;;;;0.30;0.30;;;15.60;43.00;;;;;;5012185;28;20176;-72
2022/03/22 09:47:30;;;;;;;1.02;0.88;;;16.10;42.20;;;;;;5021767;28;20036;-72
2022/03/22 09:49:56;;;;;;;0.20;0.20;;;16.10;40.70;;;;;;5021480;28;20504;-73
2022/03/22 09:52:23;;;;;;;7.47;2.40;;;16.20;40.50;;;;;;5020183;28;20124;-73
2022/03/22 09:54:49;;;;;;;0.40;0.30;;;16.30;38.80;;;;;;5021990;28;20059;-73
2022/03/22 09:57:15;;;;;;;0.73;0.73;;;16.60;39.30;;;;;;5021503;28;20026;-73
2022/03/22 09:59:41;;;;;;;1.33;0.93;;;17.00;37.10;;;;;;5022051;28;20029;-73
2022/03/22 10:02:06;;;;;;;0.20;0.20;;;17.20;37.20;;;;;;5021940;28;20556;-74
2022/03/22 10:04:41;;;;;;;0.50;0.50;;;17.40;37.60;;;;;;5020121;28;20034;-74
2022/03/22 10:07:16;;;;;;;0.68;0.65;;;17.60;36.90;;;;;;5019526;28;20105;-74
2022/03/22 10:09:49;;;;;;;0.30;0.30;;;17.90;37.00;;;;;;5022066;28;20099;-73
2022/03/22 10:12:26;;;;;;;0.65;0.65;;;17.90;35.90;;;;;;5010784;28;20029;-70
2022/03/22 10:14:52;;;;;;;0.10;0.10;;;17.80;35.90;;;;;;5019751;28;20580;-72
2022/03/22 10:17:18;;;;;;;1.08;0.85;;;18.50;36.00;;;;;;5027754;28;20120;-72
2022/03/22 10:19:44;;;;;;;4.03;1.75;;;18.90;34.50;;;;;;5020100;28;20613;-72
2022/03/22 10:22:10;;;;;;;5.15;2.78;;;19.30;34.90;;;;;;5019023;28;20064;-72
2022/03/22 10:24:51;;;;;;;0.10;0.10;;;19.00;34.60;;;;;;5021077;28;20075;-72
2022/03/22 10:27:26;;;;;;;0.43;0.43;;;19.30;35.30;;;;;;5027089;28;20037;-72
2022/03/22 10:29:53;;;;;;;0.73;0.73;;;19.40;34.00;;;;;;5020860;28;20033;-72
2022/03/22 10:32:32;;;;;;;0.30;0.30;;;19.60;34.20;;;;;;5019390;28;20053;-72
2022/03/22 10:35:20;;;;;;;3.50;2.08;;;19.60;34.00;;;;;;5010230;28;20109;-72
2022/03/22 10:37:51;;;;;;;1.58;0.98;;;19.90;33.00;;;;;;5020003;28;20095;-72
2022/03/22 10:40:32;;;;;;;1.80;1.13;;;19.80;33.20;;;;;;5021262;28;20034;-72
2022/03/22 10:43:07;;;;;;;2.90;1.52;;;19.80;32.40;;;;;;5020713;28;20041;-72
2022/03/22 10:45:43;;;;;;;0.90;0.65;;;20.00;32.90;;;;;;5020541;28;20087;-72
2022/03/22 10:48:09;;;;;;;2.95;2.75;;;20.20;32.90;;;;;;5020350;28;20497;-72
2022/03/22 10:50:38;;;;;;;2.53;1.58;;;20.70;32.80;;;;;;5021198;28;20497;-72
2022/03/22 10:53:04;;;;;;;1.52;1.05;;;20.40;32.70;;;;;;5018393;28;20101;-72
2022/03/22 10:55:31;;;;;;;2.17;0.70;;;20.80;32.40;;;;;;5020670;28;20153;-70
2022/03/22 10:57:59;;;;;;;4.22;2.42;;;20.40;32.10;;;;;;5020059;28;20030;-72
2022/03/22 11:00:26;;;;;;;1.27;1.02;;;20.10;32.50;;;;;;5019378;28;20117;-72
2022/03/22 11:02:55;;;;;;;0.47;0.43;;;20.30;32.20;;;;;;5019561;28;20167;-72
2022/03/22 11:05:26;;;;;;;0.35;0.35;;;20.80;31.10;;;;;;5018834;28;20428;-72
2022/03/22 11:07:52;;;;;;;0.30;0.30;;;20.60;31.50;;;;;;5020048;28;20057;-72
2022/03/22 11:10:24;;;;;;;0.70;0.68;;;21.00;31.50;;;;;;5020593;28;20037;-72
2022/03/22 11:12:53;;;;;;;3.97;0.82;;;21.40;30.90;;;;;;5020195;28;20034;-70
2022/03/22 11:15:20;;;;;;;0.20;0.20;;;21.10;30.40;;;;;;5001413;28;20025;-70
2022/03/22 11:17:49;;;;;;;1.77;1.17;;;21.20;31.30;;;;;;5018280;28;20737;-70
2022/03/22 11:20:15;;;;;;;1.25;1.23;;;21.40;30.20;;;;;;5018899;28;20085;-72
2022/03/22 11:22:55;;;;;;;0.88;0.65;;;21.40;31.50;;;;;;5019155;28;20980;-70
2022/03/22 11:25:35;;;;;;;2.22;2.05;;;21.80;31.00;;;;;;5019736;28;20045;-70
2022/03/22 11:28:12;;;;;;;0.38;0.28;;;22.10;30.00;;;;;;5001179;28;20037;-70
2022/03/22 11:30:40;;;;;;;8.52;3.05;;;21.90;30.70;;;;;;5020361;28;20115;-70
2022/03/22 11:35:52;;;;;;;2.58;1.75;;;21.10;31.50;;;;;;5020398;28;20038;-70
2022/03/22 11:38:50;;;;;;;1.45;1.35;;;21.60;31.20;;;;;;5018548;28;20094;-70
2022/03/22 11:44:23;;;;;;;1.67;1.58;;;21.70;31.10;;;;;;5022849;28;20045;-70
2022/03/22 11:47:05;;;;;;;2.60;2.40;;;22.20;30.00;;;;;;5023562;28;20516;-71
2022/03/22 11:49:46;;;;;;;4.00;1.67;;;22.40;30.10;;;;;;5023607;28;20029;-70
2022/03/22 11:52:13;;;;;;;0.35;0.35;;;21.40;30.20;;;;;;5023087;28;20516;-71
2022/03/22 11:54:39;;;;;;;9.73;5.88;;;21.80;31.00;;;;;;5023583;28;20061;-71
2022/03/22 11:57:07;;;;;;;7.32;2.40;;;22.20;30.00;;;;;;5016170;28;20025;-71
2022/03/22 11:59:45;;;;;;;0.85;0.52;;;21.70;29.90;;;;;;5022209;28;20029;-71
2022/03/22 12:02:15;;;;;;;12.68;3.13;;;21.50;29.70;;;;;;5024515;28;20125;-70
2022/03/22 12:04:52;;;;;;;1.48;0.90;;;21.40;29.60;;;;;;5022116;28;20033;-71
2022/03/22 12:07:45;;;;;;;1.25;0.65;;;21.50;30.00;;;;;;5023559;28;20052;-71
2022/03/22 12:10:12;;;;;;;1.55;0.98;;;22.20;29.70;;;;;;5021358;28;20041;-71
2022/03/22 12:12:49;;;;;;;1.75;1.17;;;22.50;29.00;;;;;;5024274;28;20020;-71
2022/03/22 12:15:20;;;;;;;2.30;1.67;;;22.40;28.60;;;;;;5038864;28;20036;-71
2022/03/22 12:17:46;;;;;;;3.45;2.40;;;21.80;29.40;;;;;;5039252;28;20037;-71
2022/03/22 12:20:15;;;;;;;5.50;1.02;;;21.60;29.90;;;;;;5023570;28;20386;-71
2022/03/22 12:22:47;;;;;;;1.15;0.90;;;21.70;30.30;;;;;;5022382;28;21141;-71
2022/03/22 12:25:18;;;;;;;2.40;1.27;;;21.90;29.90;;;;;;4996649;28;20095;-70
2022/03/22 12:27:58;;;;;;;1.92;0.45;;;21.20;30.20;;;;;;5023088;28;20110;-71
2022/03/22 12:30:30;;;;;;;0.80;0.80;;;21.20;30.80;;;;;;5023030;28;20151;-71
2022/03/22 12:32:58;;;;;;;4.25;2.47;;;21.60;30.00;;;;;;5023666;28;20036;-71
2022/03/22 12:35:25;;;;;;;0.38;0.38;;;21.10;30.20;;;;;;5022384;28;20444;-71
2022/03/22 12:37:52;;;;;;;4.13;2.33;;;20.80;31.10;;;;;;5023530;28;20140;-71
2022/03/22 12:40:20;;;;;;;1.38;1.27;;;21.10;30.10;;;;;;5021337;28;20037;-71
2022/03/22 12:42:47;;;;;;;1.25;0.85;;;21.10;30.10;;;;;;5014046;28;20067;-71
2022/03/22 12:45:13;;;;;;;1.65;0.95;;;20.70;31.60;;;;;;5020744;28;20074;-71
2022/03/22 12:47:40;;;;;;;0.70;0.70;;;20.10;32.10;;;;;;5023480;28;20393;-71
2022/03/22 12:50:08;;;;;;;8.05;2.45;;;20.00;32.40;;;;;;5022367;28;20029;-71
2022/03/22 12:52:35;;;;;;;2.35;1.70;;;19.80;32.30;;;;;;5022986;28;20044;-70
2022/03/22 12:55:02;;;;;;;1.65;1.38;;;19.80;32.80;;;;;;5022682;28;20445;-71
2022/03/22 12:57:29;;;;;;;1.13;1.10;;;19.80;32.40;;;;;;5022941;28;20422;-71
2022/03/22 12:59:56;;;;;;;3.92;2.05;;;19.20;32.70;;;;;;5021246;28;20029;-72
2022/03/22 13:02:23;;;;;;;1.08;0.65;;;18.70;33.30;;;;;;5003633;28;20199;-71
2022/03/22 13:04:50;;;;;;;2.70;1.90;;;19.00;33.30;;;;;;5020758;28;20033;-71
2022/03/22 13:07:20;;;;;;;0.45;0.45;;;19.00;33.40;;;;;;5020102;28;20481;-71
2022/03/22 13:12:33;;;;;;;1.92;0.85;;;19.10;33.30;;;;;;5022722;28;20052;-71
2022/03/22 13:15:06;;;;;;;15.30;2.80;;;19.00;32.90;;;;;;5022157;28;20083;-71
2022/03/22 13:17:38;;;;;;;3.90;2.58;;;18.80;32.30;;;;;;5021118;28;20041;-71
2022/03/22 13:20:12;;;;;;;1.00;0.68;;;18.50;32.70;;;;;;5022603;28;20026;-71
2022/03/22 13:22:49;;;;;;;0.82;0.82;;;18.20;33.20;;;;;;5020299;28;20043;-71
2022/03/22 13:25:16;;;;;;;0.30;0.30;;;18.10;32.80;;;;;;5022478;28;20032;-70
2022/03/22 13:27:42;;;;;;;0.28;0.28;;;17.80;33.00;;;;;;5021914;28;20208;-71
2022/03/22 13:30:19;;;;;;;2.20;1.33;;;18.00;33.40;;;;;;5022253;28;20029;-71
2022/03/22 13:32:45;;;;;;;1.85;1.30;;;18.00;33.50;;;;;;5022026;28;20030;-71
2022/03/22 13:35:12;;;;;;;0.90;0.80;;;18.10;33.10;;;;;;5022535;28;20428;-71